Fairbanks, AK

10:37 AM AKST on February 25, 2017 (GMT -0900)
200 Slater Dr. | | Change Station
Active Advisory: Winter Storm Warning

Elev 450 ft 64.84 °N, 147.70 °W | Updated 23 seconds ago

Mostly Cloudy
Mostly Cloudy
31.8 °F
Feels Like 32 °F
N
2.9
Wind Variable Wind from WNW
Gusts 3.0 mph

Today
High -- | Low -- °F
--% Chance of Precip.
Yesterday
High -- | Low -- °F
Precip. -- in
Pressure 30.45 in
Visibility 9.0 miles
Clouds Mostly Cloudy 2800 ft
Windchill 32 °F
Dew Point 27 °F
Humidity 82%
Rainfall 0.01 in
Snow Depth Not available.
8:12 AM 5:56 PM
Waning Crescent, 1% visible
SPECI PAFB 251903Z AUTO 16005KT 9SM BKN028 M02/M04 A3045 RMK AO2 BKN V SCT
Pressure 30.45 in
Visibility 9.0 miles
Clouds Mostly Cloudy 2800 ft
Windchill 32 °F
Dew Point 27 °F
Humidity 82%
Rainfall 0.01 in
Snow Depth Not available.
8:12 AM 5:56 PM
Waning Crescent, 1% visible
SPECI PAFB 251903Z AUTO 16005KT 9SM BKN028 M02/M04 A3045 RMK AO2 BKN V SCT

Get Your Daily Forecast Email!

Thanks for signing up!

Be on the lookout for a verification email in your inbox.

You'll start receiving the daily forecast at 8 AM.

×

10-Day Weather Forecast

Almanac

Astronomy

Feb. 25, 2017 Rise Set
Actual Time
Civil Twilight
Nautical Twilight
Astronomical Twilight
Moon
Length of Visible Light
Length of Day
Tomorrow will be .
, % of the Moon is Illuminated

Today's Extremes

State Highs State Lows

Community

WunderPhotos

Upload Photos

1,962,540 photos uploaded!

WunderBlog® & News

Nearby

Air Quality

  Air Quality AQ Index Pollutant
Not available.

Snow Depth

Station Depth Elevation

Earthquake Activity

City Distance Mag. Time & Date
Minimum magnitude displayed is 2.5.

Coastal Water Temperatures

Place Temperature

Stations

Nearby Weather Stations

Station Location Temp. Windchill Dew Point Humidity Wind Precip. Elev Updated Type
                   

Watches & Warnings

Winter Storm Warning
Issued: 9:29 AM AKST Feb. 25, 2017 – National Weather Service

... Winter Storm Warning now in effect from 3 PM this afternoon to
noon akst Sunday...

* snow... 6 to 10 inches.

* Blowing snow... reducing visibility to one half mile at times
over summits.

* Winds... southwest to around 25 with gusts to 35 mph over
summits.

* Timing... snow will develop this afternoon. Snow will be heavy at
times Saturday evening into early Sunday before tapering off
late Sunday morning.

* Impacts... visibility may be greatly reduced. Travel and
outdoor activities will be difficult.

Precautionary/preparedness actions...

A Winter Storm Warning means one or more significant winter
weather hazards are occurring or expected.